createdAt,value
2022-12-18T00:04:03.103Z,13.8
2022-12-18T00:09:05.245Z,13.7
2022-12-18T00:14:07.503Z,13.7
2022-12-18T00:19:09.673Z,13.6
2022-12-18T00:24:11.840Z,13.6
2022-12-18T00:29:13.996Z,13.6
2022-12-18T00:34:16.222Z,13.5
2022-12-18T00:39:18.488Z,13.5
2022-12-18T00:44:20.650Z,13.4
2022-12-18T00:49:22.789Z,13.3
2022-12-18T00:54:24.932Z,13.3
2022-12-18T00:59:27.044Z,13.2
2022-12-18T01:04:29.193Z,13.2
2022-12-18T01:09:31.419Z,13.1
2022-12-18T01:14:33.663Z,13.1
2022-12-18T01:19:35.852Z,13
2022-12-18T01:24:38.006Z,13
2022-12-18T01:29:40.141Z,12.9
2022-12-18T01:34:42.327Z,12.9
2022-12-18T01:39:44.545Z,12.9
2022-12-18T01:44:46.802Z,12.8
2022-12-18T01:49:48.937Z,12.8
2022-12-18T01:54:51.074Z,12.7
2022-12-18T01:59:53.208Z,12.6
2022-12-18T02:04:55.478Z,12.6
2022-12-18T02:09:57.738Z,12.5
2022-12-18T02:15:00.999Z,12.5
2022-12-18T02:20:03.008Z,12.5
2022-12-18T02:25:05.147Z,12.4
2022-12-18T02:30:07.401Z,12.4
2022-12-18T02:35:09.517Z,12.4
2022-12-18T02:40:11.761Z,12.4
2022-12-18T02:45:14.199Z,12.5
2022-12-18T02:50:16.209Z,12.5
2022-12-18T02:55:18.331Z,12.6
2022-12-18T03:00:20.585Z,12.7
2022-12-18T03:05:22.715Z,12.8
2022-12-18T03:10:24.892Z,12.9
2022-12-18T03:15:27.174Z,13.1
2022-12-18T03:20:29.179Z,13.2
2022-12-18T03:25:31.318Z,13.3
2022-12-18T03:30:33.688Z,13.3
2022-12-18T03:35:35.600Z,13.4
2022-12-18T03:40:37.730Z,13.4
2022-12-18T03:45:40.052Z,13.5
2022-12-18T03:50:42.063Z,13.5
2022-12-18T03:55:44.399Z,13.4
2022-12-18T04:00:47.733Z,13.4
2022-12-18T04:05:49.751Z,13.4
2022-12-18T04:10:52.010Z,13.4
2022-12-18T04:15:54.414Z,13.4
2022-12-18T04:20:56.371Z,13.4
2022-12-18T04:25:58.584Z,13.4
2022-12-18T04:31:00.886Z,13.3
2022-12-18T04:36:02.852Z,13.3
2022-12-18T04:41:05.081Z,13.2
2022-12-18T04:46:07.388Z,13.2
2022-12-18T04:51:09.508Z,13.1
2022-12-18T04:56:12.837Z,13.1
2022-12-18T05:01:15.183Z,13.1
2022-12-18T05:06:17.098Z,13
2022-12-18T05:11:19.310Z,13
2022-12-18T05:16:21.661Z,12.9
2022-12-18T05:21:23.586Z,12.9
2022-12-18T05:26:25.710Z,12.9
2022-12-18T05:31:27.993Z,12.9
2022-12-18T05:36:30.095Z,12.9
2022-12-18T05:41:32.383Z,12.9
2022-12-18T05:46:34.797Z,13
2022-12-18T05:51:36.786Z,13.1
2022-12-18T05:56:39.742Z,13.2
2022-12-18T06:01:41.344Z,13.4
2022-12-18T06:06:43.336Z,13.5
2022-12-18T06:11:45.634Z,13.7
2022-12-18T06:16:47.978Z,13.8
2022-12-18T06:21:50.017Z,13.9
2022-12-18T06:26:52.148Z,14.1
2022-12-18T06:31:54.441Z,14.2
2022-12-18T06:36:56.534Z,14.4
2022-12-18T06:41:58.759Z,14.6
2022-12-18T06:47:01.013Z,14.7
2022-12-18T06:52:03.017Z,14.9
2022-12-18T06:57:05.296Z,15
2022-12-18T07:02:07.666Z,15.1
2022-12-18T07:07:09.646Z,15.1
2022-12-18T07:12:11.776Z,15.2
2022-12-18T07:17:14.062Z,15.2
2022-12-18T07:22:16.137Z,15.2
2022-12-18T07:27:18.393Z,15.2
2022-12-18T07:32:20.755Z,15.2
2022-12-18T07:37:22.920Z,15.2
2022-12-18T07:42:25.137Z,15.1
2022-12-18T07:47:27.415Z,15.1
2022-12-18T07:52:29.420Z,15.1
2022-12-18T07:57:49.776Z,15
2022-12-18T08:02:34.206Z,15
2022-12-18T08:07:36.045Z,14.9
2022-12-18T08:12:39.194Z,14.9
2022-12-18T08:17:41.442Z,14.9
2022-12-18T08:22:43.456Z,14.9
2022-12-18T08:27:45.717Z,15
2022-12-18T08:32:48.133Z,15
2022-12-18T08:37:50.191Z,15.1
2022-12-18T08:42:52.453Z,15.2
2022-12-18T08:47:54.778Z,15.3
2022-12-18T08:52:56.815Z,15.4
2022-12-18T08:57:59.076Z,15.4
2022-12-18T09:03:01.430Z,15.5
2022-12-18T09:08:03.387Z,15.5
2022-12-18T09:13:05.572Z,15.5
2022-12-18T09:18:07.835Z,15.5
2022-12-18T09:23:09.851Z,15.5
2022-12-18T09:28:11.983Z,15.5
2022-12-18T09:33:14.244Z,15.5
2022-12-18T09:38:16.362Z,15.5
2022-12-18T09:43:18.567Z,15.4
2022-12-18T09:48:20.833Z,15.4
2022-12-18T09:53:22.853Z,15.4
2022-12-18T09:58:24.979Z,15.3
2022-12-18T10:03:27.349Z,15.3
2022-12-18T10:08:29.487Z,15.2
2022-12-18T10:13:31.712Z,15.2
2022-12-18T10:18:33.968Z,15.1
2022-12-18T10:23:35.977Z,15.1
2022-12-18T10:28:38.488Z,15
2022-12-18T10:33:40.506Z,14.9
2022-12-18T10:38:42.747Z,14.9
2022-12-18T10:43:44.638Z,14.8
2022-12-18T10:48:46.899Z,14.7
2022-12-18T10:53:48.898Z,14.6
2022-12-18T10:58:51.149Z,14.6
2022-12-18T11:03:56.416Z,14.5
2022-12-18T11:08:55.495Z,14.5
2022-12-18T11:13:57.618Z,14.5
2022-12-18T11:18:59.959Z,14.5
2022-12-18T11:24:02.112Z,14.5
2022-12-18T11:29:04.304Z,14.6
2022-12-18T11:34:34.691Z,14.6
2022-12-18T11:39:09.044Z,14.7
2022-12-18T11:44:11.189Z,14.8
2022-12-18T11:49:13.573Z,14.9
2022-12-18T11:54:15.673Z,15
2022-12-18T11:59:17.931Z,15.1
2022-12-18T12:04:20.373Z,15.1
2022-12-18T12:09:22.371Z,15.1
2022-12-18T12:14:24.498Z,15.1
2022-12-18T12:19:26.875Z,15.1
2022-12-18T12:24:28.924Z,15.1
2022-12-18T12:29:31.168Z,15.2
2022-12-18T12:34:33.527Z,15.2
2022-12-18T12:39:35.539Z,15.3
2022-12-18T12:44:37.812Z,15.4
2022-12-18T12:49:40.854Z,15.5
2022-12-18T12:54:42.090Z,15.5
2022-12-18T12:59:44.283Z,15.6
2022-12-18T13:04:46.542Z,15.6
2022-12-18T13:09:48.549Z,15.7
2022-12-18T13:14:50.682Z,15.8
2022-12-18T13:19:52.943Z,16
2022-12-18T13:24:54.953Z,16.1
2022-12-18T13:29:57.090Z,16.2
2022-12-18T13:34:59.343Z,16.2
2022-12-18T13:40:01.353Z,16.2
2022-12-18T13:45:03.482Z,16.2
2022-12-18T13:55:17.774Z,16.2
2022-12-18T14:00:19.815Z,16.2
2022-12-18T14:05:22.002Z,16.1
2022-12-18T14:15:26.486Z,16.1
2022-12-18T14:20:28.709Z,16.1
2022-12-18T14:25:31.124Z,16
2022-12-18T14:30:33.357Z,16
2022-12-18T14:35:35.497Z,15.9
2022-12-18T14:40:37.913Z,15.9
2022-12-18T14:45:42.464Z,15.8
2022-12-18T14:50:42.205Z,15.8
2022-12-18T14:55:44.561Z,15.8
2022-12-18T15:00:46.660Z,15.8
2022-12-18T15:05:48.962Z,15.8
2022-12-18T15:10:51.356Z,15.8
2022-12-18T15:15:53.502Z,15.8
2022-12-18T15:20:55.629Z,15.8
2022-12-18T15:25:57.959Z,15.9
2022-12-18T15:31:00.158Z,15.9
2022-12-18T15:36:02.209Z,16
2022-12-18T15:41:04.497Z,16.1
2022-12-18T15:46:06.611Z,16.1
2022-12-18T15:51:08.686Z,16.2
2022-12-18T15:56:10.943Z,16.2
2022-12-18T16:01:13.000Z,16.3
2022-12-18T16:06:15.096Z,16.3
2022-12-18T16:11:17.370Z,16.3
2022-12-18T16:16:19.436Z,16.3
2022-12-18T16:21:21.504Z,16.2
2022-12-18T16:26:29.614Z,16.1
2022-12-18T16:31:25.986Z,16.1
2022-12-18T16:36:28.092Z,16
2022-12-18T16:41:30.243Z,16
2022-12-18T16:46:32.598Z,15.9
2022-12-18T16:51:34.593Z,15.9
2022-12-18T16:56:36.839Z,15.9
2022-12-18T17:01:39.218Z,15.9
2022-12-18T17:06:41.125Z,15.9
2022-12-18T17:11:43.266Z,15.9
2022-12-18T17:16:45.523Z,16
2022-12-18T17:21:47.532Z,16
2022-12-18T17:26:49.660Z,16.1
2022-12-18T17:31:51.959Z,16.2
2022-12-18T17:36:54.026Z,16.3
2022-12-18T17:41:56.184Z,16.4
2022-12-18T17:46:58.506Z,16.5
2022-12-18T17:52:00.446Z,16.5
2022-12-18T17:57:02.615Z,16.5
2022-12-18T18:02:05.075Z,16.6
2022-12-18T18:07:06.870Z,16.6
2022-12-18T18:12:09.079Z,16.6
2022-12-18T18:17:11.442Z,16.5
2022-12-18T18:22:13.548Z,16.5
2022-12-18T18:27:15.674Z,16.4
2022-12-18T18:32:17.941Z,16.4
2022-12-18T18:37:20.031Z,16.4
2022-12-18T18:42:22.181Z,16.3
2022-12-18T18:47:24.577Z,16.3
2022-12-18T18:52:26.701Z,16.3
2022-12-18T18:57:30.593Z,16.2
2022-12-18T19:02:31.338Z,16.2
2022-12-18T19:07:33.223Z,16.1
2022-12-18T19:12:35.492Z,16.1
2022-12-18T19:17:37.794Z,16.1
2022-12-18T19:22:39.813Z,16.1
2022-12-18T19:27:41.940Z,16.1
2022-12-18T19:32:44.336Z,16.1
2022-12-18T19:37:46.362Z,16.2
2022-12-18T19:42:48.480Z,16.2
2022-12-18T19:47:50.739Z,16.3
2022-12-18T19:52:52.752Z,16.4
2022-12-18T19:57:54.961Z,16.5
2022-12-18T20:03:03.926Z,16.5
2022-12-18T20:07:59.541Z,16.6
2022-12-18T20:13:01.702Z,16.6
2022-12-18T20:18:03.976Z,16.5
2022-12-18T20:23:05.979Z,16.5
2022-12-18T20:28:08.114Z,16.5
2022-12-18T20:33:10.361Z,16.4
2022-12-18T20:38:12.511Z,16.4
2022-12-18T20:43:17.271Z,16.4
2022-12-18T20:48:17.877Z,16.4
2022-12-18T20:53:19.082Z,16.4
2022-12-18T20:58:21.219Z,16.4
2022-12-18T21:03:23.698Z,16.4
2022-12-18T21:08:25.809Z,16.3
2022-12-18T21:13:27.967Z,16.3
2022-12-18T21:18:30.378Z,16.3
2022-12-18T21:23:32.380Z,16.2
2022-12-18T21:28:34.630Z,16.2
2022-12-18T21:33:37.019Z,16.2
2022-12-18T21:38:39.161Z,16.1
2022-12-18T21:43:41.378Z,16.1
2022-12-18T21:48:43.774Z,16
2022-12-18T21:53:45.912Z,15.9
2022-12-18T21:58:55.364Z,15.8
2022-12-18T22:03:50.599Z,15.7
2022-12-18T22:08:52.629Z,15.6
2022-12-18T22:13:54.785Z,15.5
2022-12-18T22:18:57.035Z,15.5
2022-12-18T22:23:59.160Z,15.5
2022-12-18T22:29:01.441Z,15.4
2022-12-18T22:34:03.824Z,15.4
2022-12-18T22:39:05.854Z,15.3
2022-12-18T22:44:08.082Z,15.2
2022-12-18T22:49:15.633Z,15.2
2022-12-18T22:54:12.573Z,15.1
2022-12-18T22:59:14.616Z,15.1
2022-12-18T23:04:16.745Z,15
2022-12-18T23:09:18.990Z,15
2022-12-18T23:14:21.006Z,15
2022-12-18T23:19:23.483Z,15
2022-12-18T23:24:25.435Z,14.9
2022-12-18T23:29:27.463Z,14.9
2022-12-18T23:34:29.607Z,14.9
2022-12-18T23:39:31.876Z,14.8
2022-12-18T23:44:33.891Z,14.8
2022-12-18T23:49:36.025Z,14.7
2022-12-18T23:54:38.391Z,14.7
2022-12-18T23:59:40.412Z,14.6
